Time;durP1;ratioP1;P1;durP2;ratioP2;P2;SDS_P1;SDS_P2;PMS_P1;PMS_P2;Temp;Humidity;BMP_temperature;BMP_pressure;BME280_temperature;BME280_humidity;BME280_pressure;Samples;Min_cycle;Max_cycle;Signal;HPM_P1;HPM_P2
2021/01/17 00:00:22;;;;;;;0.97;0.93;;;;;;;-1.11;82.37;101618.53;5019663;28;21945;-72
2021/01/17 00:02:51;;;;;;;3.70;0.90;;;;;;;-1.06;82.56;101616.75;5017415;28;20667;-72
2021/01/17 00:05:21;;;;;;;1.50;0.90;;;;;;;-1.05;82.67;101616.72;5013251;28;20204;-73
2021/01/17 00:07:49;;;;;;;1.43;1.20;;;;;;;-1.02;82.59;101616.72;5016543;28;20207;-73
2021/01/17 00:10:18;;;;;;;1.90;1.13;;;;;;;-1.02;82.59;101618.47;5026423;28;20514;-72
2021/01/17 00:12:47;;;;;;;1.80;1.00;;;;;;;-1.07;82.27;101618.50;5010843;28;20203;-73
2021/01/17 00:15:15;;;;;;;1.27;1.00;;;;;;;-1.10;82.05;101621.16;5034393;28;20669;-72
2021/01/17 00:17:44;;;;;;;1.23;1.00;;;;;;;-1.13;82.12;101612.41;5029805;28;20658;-72
2021/01/17 00:20:14;;;;;;;0.80;0.80;;;;;;;-1.19;81.74;101613.31;5025426;28;20230;-73
2021/01/17 00:22:41;;;;;;;1.27;0.93;;;;;;;-1.35;82.47;101587.94;5019738;28;20200;-72
2021/01/17 00:25:12;;;;;;;0.90;0.90;;;;;;;-1.21;82.18;101617.72;5008578;28;20580;-72
2021/01/17 00:27:39;;;;;;;3.27;1.20;;;;;;;-1.21;82.21;101617.72;5010908;28;20207;-72
2021/01/17 00:30:08;;;;;;;1.50;1.40;;;;;;;-1.24;82.11;101609.81;5048004;28;20200;-72
2021/01/17 00:32:36;;;;;;;0.83;0.83;;;;;;;-1.30;81.83;101612.47;5018872;28;20204;-72
2021/01/17 00:35:03;;;;;;;1.10;1.00;;;;;;;-1.28;81.85;101608.06;5009907;28;20293;-72
2021/01/17 00:37:31;;;;;;;1.27;1.10;;;;;;;-1.28;82.05;101605.44;5008470;28;20203;-72
2021/01/17 00:39:58;;;;;;;0.87;0.87;;;;;;;-1.30;82.19;101610.72;5046904;28;20606;-72
2021/01/17 00:42:26;;;;;;;3.33;0.90;;;;;;;-1.30;82.44;101604.56;5008234;28;20213;-72
2021/01/17 00:44:54;;;;;;;6.87;4.50;;;;;;;-1.32;82.09;101601.94;5015393;28;20200;-72
2021/01/17 00:47:22;;;;;;;616.53;231.60;;;;;;;-1.33;82.38;101605.47;5015462;28;20221;-72
2021/01/17 00:49:50;;;;;;;38.47;15.07;;;;;;;-1.17;82.43;101606.28;5015978;28;20203;-72
2021/01/17 00:52:21;;;;;;;6.73;2.80;;;;;;;-1.12;82.81;101604.50;5010253;28;20711;-72
2021/01/17 00:54:51;;;;;;;6.37;1.87;;;;;;;-1.06;82.78;101612.34;5010898;28;20227;-72
2021/01/17 00:57:20;;;;;;;3.43;1.50;;;;;;;-1.06;82.53;101609.72;5052284;28;20215;-72
2021/01/17 00:59:47;;;;;;;3.07;1.70;;;;;;;-1.04;82.49;101607.94;5017652;28;20257;-72
2021/01/17 01:02:14;;;;;;;4.50;1.70;;;;;;;-1.09;82.42;101604.47;5025045;28;20200;-72
2021/01/17 01:04:41;;;;;;;3.90;1.50;;;;;;;-1.06;82.07;101612.34;5012713;28;20368;-72
2021/01/17 01:07:09;;;;;;;1.50;1.40;;;;;;;-1.09;82.24;101600.97;5014443;28;20197;-72
2021/01/17 01:09:36;;;;;;;0.87;0.87;;;;;;;-1.11;81.80;101613.25;5020044;28;20578;-72
2021/01/17 01:12:04;;;;;;;0.97;0.87;;;;;;;-1.10;82.02;101607.97;5014863;28;20197;-72
2021/01/17 01:14:32;;;;;;;2.30;1.20;;;;;;;-1.11;81.98;101611.50;5026942;28;20532;-72
2021/01/17 01:16:59;;;;;;;2.77;1.43;;;;;;;-1.07;82.21;101613.22;5020610;28;20207;-72
2021/01/17 01:19:26;;;;;;;1.83;1.30;;;;;;;-1.04;82.27;101614.97;5027601;28;20276;-72
2021/01/17 01:21:53;;;;;;;2.47;2.00;;;;;;;-1.00;82.07;101614.06;5020454;28;20214;-72
2021/01/17 01:24:20;;;;;;;0.73;0.73;;;;;;;-0.95;82.12;101617.53;5011487;28;20193;-72
2021/01/17 01:26:47;;;;;;;1.43;1.30;;;;;;;-0.97;82.07;101614.91;5014041;28;20634;-73
2021/01/17 01:29:16;;;;;;;2.43;1.20;;;;;;;-0.98;82.27;101614.94;5026427;28;20238;-72
2021/01/17 01:31:43;;;;;;;1.83;1.40;;;;;;;-1.13;81.84;101613.28;5027707;28;20195;-73
2021/01/17 01:34:11;;;;;;;3.30;2.23;;;;;;;-1.17;81.92;101608.03;5011088;28;20447;-72
2021/01/17 01:36:40;;;;;;;1.43;1.30;;;;;;;-1.10;82.04;101607.13;5020329;28;20213;-72
2021/01/17 01:39:08;;;;;;;1.07;1.00;;;;;;;-1.29;82.33;101575.59;5017336;28;20308;-72
2021/01/17 01:41:38;;;;;;;1.53;1.10;;;;;;;-0.99;82.32;101606.16;5018821;28;20203;-72
2021/01/17 01:44:06;;;;;;;1.03;0.90;;;;;;;-0.94;82.23;101608.75;5029931;28;20333;-72
2021/01/17 01:46:38;;;;;;;1.83;1.30;;;;;;;-0.87;82.19;101599.06;5030718;28;20202;-72
2021/01/17 01:49:07;;;;;;;1.43;1.07;;;;;;;-0.84;82.32;101604.31;5011671;28;20206;-72
2021/01/17 01:51:35;;;;;;;1.70;1.10;;;;;;;-1.10;82.58;101557.91;5037970;28;20214;-73
2021/01/17 01:54:03;;;;;;;3.07;1.13;;;;;;;-0.79;82.34;101607.78;5018297;28;20196;-72
2021/01/17 01:56:30;;;;;;;5.67;1.43;;;;;;;-0.78;82.09;101609.53;5018282;28;20703;-73
2021/01/17 01:58:57;;;;;;;1.97;1.20;;;;;;;-0.87;82.17;101591.16;5024260;28;20324;-72
2021/01/17 02:01:25;;;;;;;1.40;1.30;;;;;;;-0.91;81.77;101598.22;5020517;28;20203;-73
2021/01/17 02:03:53;;;;;;;2.13;1.03;;;;;;;-0.98;81.75;101596.47;5013620;28;20558;-73
2021/01/17 02:06:21;;;;;;;1.57;1.20;;;;;;;-1.01;81.95;101591.22;5006826;28;20224;-73
2021/01/17 02:09:21;;;;;;;2.30;1.57;;;;;;;-0.94;82.35;101588.53;5016361;28;20206;-72
2021/01/17 02:12:03;;;;;;;1.00;0.90;;;;;;;-0.89;81.95;101596.44;5014492;28;20208;-73
2021/01/17 02:14:42;;;;;;;1.67;1.00;;;;;;;-0.82;82.47;101602.53;5015609;28;20599;-72
2021/01/17 02:17:13;;;;;;;0.90;0.90;;;;;;;-0.81;82.42;101596.38;5030677;28;20679;-73
2021/01/17 02:20:02;;;;;;;2.17;0.97;;;;;;;-0.80;82.40;101596.38;5029388;28;20230;-73
2021/01/17 02:22:33;;;;;;;1.53;0.77;;;;;;;-0.81;82.40;101593.75;5031898;28;20575;-72
2021/01/17 02:25:06;;;;;;;1.40;1.10;;;;;;;-0.80;82.64;101595.50;5036234;28;20227;-72
2021/01/17 02:27:34;;;;;;;2.00;1.20;;;;;;;-0.81;82.13;101599.00;5023061;28;20211;-72
2021/01/17 02:30:05;;;;;;;1.53;1.20;;;;;;;-0.79;82.69;101607.78;5015771;28;20201;-73
2021/01/17 02:32:34;;;;;;;790.53;361.00;;;;;;;-0.76;82.92;101600.72;5025538;28;20203;-73
2021/01/17 02:35:03;;;;;;;255.20;110.43;;;;;;;-0.74;82.91;101595.44;5014426;28;20321;-72
2021/01/17 02:37:38;;;;;;;5.53;3.33;;;;;;;-0.73;82.91;101603.34;5032089;28;20211;-73
2021/01/17 02:40:13;;;;;;;1.70;1.13;;;;;;;-0.76;83.02;101599.84;5019659;28;20231;-72
2021/01/17 02:42:41;;;;;;;1.43;1.17;;;;;;;-0.75;82.69;101599.84;5025226;28;20200;-72
2021/01/17 02:45:09;;;;;;;1.63;1.47;;;;;;;-0.75;82.75;101605.09;5026879;28;20221;-73
2021/01/17 02:47:37;;;;;;;1.73;1.40;;;;;;;-0.74;82.80;101600.72;5034043;28;20199;-72
2021/01/17 02:50:05;;;;;;;1.87;1.67;;;;;;;-0.76;82.91;101598.09;5027735;28;20219;-72
2021/01/17 02:52:41;;;;;;;2.77;1.80;;;;;;;-0.82;82.20;101595.50;5018799;28;20200;-72
2021/01/17 02:55:11;;;;;;;2.63;1.20;;;;;;;-0.90;82.03;101585.91;5019457;28;20711;-72
2021/01/17 02:57:40;;;;;;;1.20;1.10;;;;;;;-0.79;82.37;101600.75;5019269;28;20206;-72
2021/01/17 03:00:09;;;;;;;2.83;1.57;;;;;;;-0.81;81.94;101593.75;5025061;28;20230;-72
2021/01/17 03:02:42;;;;;;;1.27;1.17;;;;;;;-0.95;81.68;101588.53;5036463;28;20210;-72
2021/01/17 03:05:14;;;;;;;2.03;0.93;;;;;;;-0.91;81.96;101581.53;5034967;28;20205;-73
2021/01/17 03:07:47;;;;;;;1.47;1.30;;;;;;;-0.85;82.41;101581.47;5023188;28;20208;-72
2021/01/17 03:10:16;;;;;;;3.53;1.37;;;;;;;-1.03;82.69;101559.63;5029484;28;20206;-72
2021/01/17 03:12:43;;;;;;;1.33;1.13;;;;;;;-0.84;82.31;101586.72;5025088;28;20192;-72
2021/01/17 03:15:12;;;;;;;1.53;1.40;;;;;;;-0.82;82.24;101581.44;5019621;28;20202;-72
2021/01/17 03:17:39;;;;;;;6.57;1.13;;;;;;;-0.80;82.75;101577.91;5053164;28;20207;-73
2021/01/17 03:20:08;;;;;;;2.57;1.10;;;;;;;-0.81;82.29;101584.06;5021460;28;20693;-72
2021/01/17 03:22:35;;;;;;;1.53;1.17;;;;;;;-0.81;82.37;101581.44;5026342;28;20210;-72
2021/01/17 03:25:03;;;;;;;1.27;1.17;;;;;;;-0.79;82.53;101582.28;5034942;28;20265;-73
2021/01/17 03:27:32;;;;;;;1.27;1.17;;;;;;;-0.76;82.83;101573.47;5022445;28;20682;-72
2021/01/17 03:29:59;;;;;;;1.90;1.27;;;;;;;-0.80;82.74;101569.13;5018935;28;20200;-72
2021/01/17 03:32:26;;;;;;;1.20;1.10;;;;;;;-0.79;82.09;101576.16;5024882;28;20518;-72
2021/01/17 03:34:53;;;;;;;9.63;1.07;;;;;;;-0.78;82.67;101569.97;5024426;28;20578;-72
2021/01/17 03:37:21;;;;;;;1.57;1.40;;;;;;;-0.76;82.74;101577.00;5025258;28;20411;-72
2021/01/17 03:39:48;;;;;;;0.80;0.80;;;;;;;-0.82;82.33;101571.78;5024290;28;20229;-72
2021/01/17 03:42:15;;;;;;;1.10;1.00;;;;;;;-0.80;82.60;101572.63;5024324;28;20287;-72
2021/01/17 03:44:48;;;;;;;1.93;0.93;;;;;;;-0.80;82.39;101570.00;5021409;28;20293;-72
2021/01/17 03:47:15;;;;;;;1.63;1.13;;;;;;;-0.77;82.50;101572.59;5023206;28;20218;-72
2021/01/17 03:49:43;;;;;;;1.80;0.90;;;;;;;-0.79;82.30;101573.50;5015736;28;21090;-72
2021/01/17 03:52:11;;;;;;;0.77;0.60;;;;;;;-0.76;82.69;101576.13;5024720;28;20554;-72
2021/01/17 03:54:38;;;;;;;2.40;0.97;;;;;;;-0.78;82.41;101567.34;5026681;28;20591;-73
2021/01/17 03:57:05;;;;;;;2.43;1.23;;;;;;;-0.78;82.60;101572.63;5020917;28;20760;-72
2021/01/17 03:59:32;;;;;;;3.03;1.43;;;;;;;-0.79;82.41;101581.41;5010021;28;20230;-72
2021/01/17 04:02:00;;;;;;;2.70;1.60;;;;;;;-0.82;82.46;101577.03;5018741;28;20207;-73
2021/01/17 04:04:28;;;;;;;1.33;1.00;;;;;;;-0.91;82.03;101581.53;5024313;28;20673;-73
2021/01/17 04:06:55;;;;;;;2.13;1.10;;;;;;;-0.91;82.15;101577.13;5027199;28;20216;-72
2021/01/17 04:09:22;;;;;;;1.17;1.00;;;;;;;-0.89;82.45;101575.34;5021112;28;20591;-72
2021/01/17 04:11:49;;;;;;;1.97;1.43;;;;;;;-0.93;82.38;101579.75;5034398;28;20226;-72
2021/01/17 04:14:17;;;;;;;3.03;1.33;;;;;;;-0.98;81.92;101581.53;5033992;28;20222;-72
2021/01/17 04:16:51;;;;;;;1.63;1.23;;;;;;;-0.97;82.20;101577.13;5022197;28;20200;-72
2021/01/17 04:19:20;;;;;;;2.23;1.57;;;;;;;-0.94;82.57;101577.13;5021231;28;20211;-73
2021/01/17 04:21:47;;;;;;;1.30;1.20;;;;;;;-0.89;82.52;101575.34;5012345;28;20693;-72
2021/01/17 04:24:15;;;;;;;3.53;1.40;;;;;;;-0.88;82.54;101569.19;5025061;28;20912;-73
2021/01/17 04:26:43;;;;;;;1.33;1.17;;;;;;;-0.87;82.38;101577.97;5020120;28;20207;-73
2021/01/17 04:29:10;;;;;;;13.10;6.70;;;;;;;-1.04;81.63;101575.44;5044574;28;20203;-73
2021/01/17 04:31:42;;;;;;;1.47;1.33;;;;;;;-1.02;82.44;101573.66;5014474;28;20235;-73
2021/01/17 04:34:10;;;;;;;3.07;1.83;;;;;;;-0.96;82.41;101571.84;5017540;28;20235;-73
2021/01/17 04:36:38;;;;;;;1.63;1.53;;;;;;;-1.10;82.65;101559.69;5027272;28;20228;-72
2021/01/17 04:39:06;;;;;;;3.30;1.60;;;;;;;-0.89;82.99;101574.47;5024476;28;20215;-72
2021/01/17 04:41:36;;;;;;;3.07;1.73;;;;;;;-0.82;82.92;101581.44;5022758;28;20737;-73
2021/01/17 04:44:05;;;;;;;2.03;1.37;;;;;;;-1.03;82.50;101530.63;5018505;28;20206;-72
2021/01/17 04:46:32;;;;;;;2.90;1.60;;;;;;;-0.78;82.25;101573.50;5008620;28;20200;-72
2021/01/17 04:49:02;;;;;;;1.33;1.23;;;;;;;-0.78;81.69;101570.84;5019499;28;20193;-73
2021/01/17 04:51:30;;;;;;;2.43;1.53;;;;;;;-0.79;82.07;101577.03;5031879;28;20660;-72
2021/01/17 04:54:00;;;;;;;2.43;1.70;;;;;;;-0.81;82.10;101577.91;5027546;28;20206;-73
2021/01/17 04:56:28;;;;;;;1.40;1.30;;;;;;;-0.79;81.91;101577.03;5025035;28;20210;-71
2021/01/17 04:59:12;;;;;;;1.63;1.50;;;;;;;-0.90;81.62;101564.81;5007803;28;20192;-72
2021/01/17 05:02:17;;;;;;;0.93;0.83;;;;;;;-0.97;81.58;101578.00;5023784;28;20202;-71
2021/01/17 05:05:14;;;;;;;7.53;1.70;;;;;;;-1.06;81.68;101582.50;5020058;28;20273;-72
2021/01/17 05:07:50;;;;;;;1.57;1.00;;;;;;;-1.01;82.10;101580.69;5020248;28;20202;-71
2021/01/17 05:10:35;;;;;;;0.87;0.87;;;;;;;-1.02;82.08;101573.66;5022896;28;20199;-72
2021/01/17 05:13:15;;;;;;;1.10;1.00;;;;;;;-0.94;82.08;101585.03;5015347;28;20209;-71
2021/01/17 05:15:44;;;;;;;1.13;1.03;;;;;;;-0.99;82.08;101576.28;5025796;28;20736;-71
2021/01/17 05:18:12;;;;;;;8.10;1.23;;;;;;;-0.97;82.27;101578.00;5023646;28;20206;-71
2021/01/17 05:20:39;;;;;;;1.30;1.13;;;;;;;-0.91;82.49;101586.78;5029127;28;20230;-72
2021/01/17 05:23:11;;;;;;;1.70;1.00;;;;;;;-0.90;82.15;101584.16;5023298;28;20726;-71
2021/01/17 05:25:43;;;;;;;0.90;0.90;;;;;;;-1.42;81.97;101497.53;5021429;28;20202;-73
2021/01/17 05:28:10;;;;;;;2.60;1.10;;;;;;;-0.91;81.70;101592.94;5024566;28;20229;-73
2021/01/17 05:30:38;;;;;;;1.90;1.00;;;;;;;-0.94;81.84;101588.53;5030788;28;20213;-72
2021/01/17 05:33:07;;;;;;;0.97;0.83;;;;;;;-0.92;81.92;101585.88;5036664;28;20281;-73
2021/01/17 05:35:36;;;;;;;2.47;0.90;;;;;;;-0.93;81.94;101592.91;5032636;28;20236;-73
2021/01/17 05:38:03;;;;;;;1.03;0.93;;;;;;;-1.13;82.09;101544.78;5023979;28;20238;-73
2021/01/17 05:40:34;;;;;;;1.03;1.03;;;;;;;-0.83;82.61;101590.25;5016530;28;20302;-73
2021/01/17 05:43:02;;;;;;;0.90;0.90;;;;;;;-0.81;82.33;101583.19;5021476;28;20206;-73
2021/01/17 05:45:29;;;;;;;1.23;0.67;;;;;;;-0.90;81.79;101581.50;5025035;28;20620;-73
2021/01/17 05:47:58;;;;;;;1.07;0.80;;;;;;;-0.97;82.00;101577.13;5017650;28;20572;-73
2021/01/17 05:50:28;;;;;;;0.90;0.90;;;;;;;-0.89;82.27;101590.28;5019712;28;20350;-73
2021/01/17 05:52:56;;;;;;;2.77;1.13;;;;;;;-0.88;82.39;101584.13;5022812;28;20694;-73
2021/01/17 05:55:31;;;;;;;1.23;0.87;;;;;;;-0.87;82.16;101585.88;5022465;28;20209;-73
2021/01/17 05:58:21;;;;;;;1.13;0.90;;;;;;;-0.86;81.96;101585.00;5024497;28;20201;-73
2021/01/17 06:00:49;;;;;;;1.43;0.87;;;;;;;-0.86;81.97;101585.88;5020264;28;20215;-73
2021/01/17 06:03:26;;;;;;;4.70;1.10;;;;;;;-0.85;82.16;101589.38;5045755;28;20282;-73
2021/01/17 06:06:00;;;;;;;1.03;0.93;;;;;;;-0.84;82.17;101583.22;5017287;28;20206;-73
2021/01/17 06:08:27;;;;;;;2.07;1.17;;;;;;;-0.97;82.50;101562.19;5057186;28;20214;-73
2021/01/17 06:11:04;;;;;;;1.23;1.13;;;;;;;-0.84;82.33;101589.38;5023734;28;20238;-73
2021/01/17 06:13:32;;;;;;;1.57;1.10;;;;;;;-1.01;81.68;101555.22;5025628;28;20267;-73
2021/01/17 06:15:59;;;;;;;2.43;1.40;;;;;;;-0.83;82.18;101591.13;5027182;28;20203;-72
2021/01/17 06:18:29;;;;;;;82.63;51.17;;;;;;;-0.77;82.41;101590.19;5026773;28;20207;-73
2021/01/17 06:20:58;;;;;;;10.90;6.63;;;;;;;-0.72;82.43;101589.25;5025226;28;20964;-73
2021/01/17 06:23:25;;;;;;;3.77;2.10;;;;;;;-0.86;82.33;101563.91;5037858;28;20586;-73
2021/01/17 06:26:05;;;;;;;3.53;1.40;;;;;;;-0.89;82.09;101579.75;5029645;28;20294;-73
2021/01/17 06:28:41;;;;;;;2.20;1.23;;;;;;;-0.91;81.90;101594.69;5023692;28;20230;-73
2021/01/17 06:31:10;;;;;;;1.77;1.17;;;;;;;-0.88;82.17;101592.03;5016177;28;20735;-73
2021/01/17 06:33:38;;;;;;;1.73;1.50;;;;;;;-0.83;82.66;101600.78;5022657;28;20209;-73
2021/01/17 06:36:13;;;;;;;1.63;1.40;;;;;;;-0.70;82.59;101598.03;5024052;28;20213;-73
2021/01/17 06:38:41;;;;;;;1.43;1.03;;;;;;;-0.90;82.63;101559.53;5020251;28;20195;-73
2021/01/17 06:41:10;;;;;;;0.97;0.93;;;;;;;-0.86;82.18;101569.19;5024017;28;20230;-73
2021/01/17 06:43:42;;;;;;;1.70;1.30;;;;;;;-0.64;82.04;101599.75;5024495;28;20215;-73
2021/01/17 06:46:10;;;;;;;1.03;1.00;;;;;;;-0.64;82.05;101608.53;5024529;28;20219;-73
2021/01/17 06:48:38;;;;;;;2.13;1.40;;;;;;;-0.68;81.66;101604.16;5021609;28;20211;-73
2021/01/17 06:51:20;;;;;;;2.20;1.23;;;;;;;-0.63;82.25;101606.75;5029788;28;20674;-73
2021/01/17 06:53:54;;;;;;;1.30;1.20;;;;;;;-0.66;81.75;101605.03;5022797;28;20669;-73
2021/01/17 06:56:22;;;;;;;3.67;1.63;;;;;;;-0.60;82.30;101603.25;5019482;28;20300;-73
2021/01/17 06:58:52;;;;;;;4.13;1.53;;;;;;;-0.70;82.03;101605.94;5020829;28;20217;-72
2021/01/17 07:01:29;;;;;;;1.70;1.30;;;;;;;-0.65;82.24;101608.53;5025050;28;20262;-73
2021/01/17 07:04:15;;;;;;;1.67;1.40;;;;;;;-0.64;82.09;101599.75;5024483;28;20204;-73
2021/01/17 07:07:04;;;;;;;2.07;1.17;;;;;;;-0.65;82.08;101608.53;5021558;28;20211;-73
2021/01/17 07:09:47;;;;;;;1.23;1.10;;;;;;;-0.60;82.52;101611.16;5010985;28;20200;-73
2021/01/17 07:12:21;;;;;;;1.17;1.03;;;;;;;-0.64;82.18;101605.00;5024350;28;20209;-72
2021/01/17 07:15:03;;;;;;;1.40;1.00;;;;;;;-0.70;81.87;101613.84;5021852;28;20195;-73
2021/01/17 07:17:34;;;;;;;1.73;1.10;;;;;;;-0.74;81.94;101611.25;5024967;28;20207;-72
2021/01/17 07:20:05;;;;;;;0.83;0.80;;;;;;;-0.72;81.99;101614.75;5024213;28;20222;-73
2021/01/17 07:22:32;;;;;;;1.57;1.33;;;;;;;-0.70;82.16;101610.34;5056351;28;20216;-73
2021/01/17 07:25:01;;;;;;;1.50;1.40;;;;;;;-0.71;82.34;101612.09;5017957;28;20199;-72
2021/01/17 07:27:50;;;;;;;1.00;0.97;;;;;;;-0.69;82.04;101609.44;5024312;28;20314;-72
2021/01/17 07:30:20;;;;;;;3.70;1.43;;;;;;;-0.74;82.25;101613.88;5032770;28;20233;-72
2021/01/17 07:32:54;;;;;;;0.50;0.50;;;;;;;-0.72;82.24;101612.13;5024375;28;20216;-72
2021/01/17 07:35:25;;;;;;;2.23;1.30;;;;;;;-0.68;82.14;101613.84;5015611;28;20263;-73
2021/01/17 07:37:55;;;;;;;1.30;1.10;;;;;;;-0.70;82.35;101610.34;5014420;28;20248;-73
2021/01/17 07:43:06;;;;;;;2.07;1.30;;;;;;;-0.61;82.55;101623.47;5018792;28;20207;-73
2021/01/17 07:45:38;;;;;;;1.03;1.00;;;;;;;-0.65;82.43;101622.59;5022095;28;20203;-73
2021/01/17 07:48:08;;;;;;;1.33;1.10;;;;;;;-0.65;82.15;101621.72;5021199;28;20226;-73
2021/01/17 07:50:37;;;;;;;1.43;1.00;;;;;;;-0.68;82.14;101624.38;5015823;28;20330;-73
2021/01/17 07:53:09;;;;;;;2.10;1.20;;;;;;;-0.70;82.28;101629.69;5019954;28;20203;-72
2021/01/17 07:55:37;;;;;;;2.00;1.10;;;;;;;-0.65;82.54;101632.28;5020770;28;20548;-72
2021/01/17 07:58:06;;;;;;;1.60;1.30;;;;;;;-0.60;82.84;101634.91;5024085;28;20200;-72
2021/01/17 08:00:37;;;;;;;1.40;1.20;;;;;;;-0.64;82.43;101632.25;5027692;28;20221;-72
2021/01/17 08:03:05;;;;;;;0.90;0.83;;;;;;;-0.64;82.54;101636.66;5048152;28;20208;-73
2021/01/17 08:05:49;;;;;;;2.60;1.10;;;;;;;-0.60;82.42;101640.19;5013970;28;20236;-72
2021/01/17 08:08:47;;;;;;;1.27;0.93;;;;;;;-0.59;82.55;101648.06;5027329;28;20338;-72
2021/01/17 08:11:40;;;;;;;0.83;0.80;;;;;;;-0.53;82.74;101648.03;5010988;28;20203;-73
2021/01/17 08:14:18;;;;;;;2.00;0.97;;;;;;;-0.53;82.95;101641.88;5013792;28;20295;-72
2021/01/17 08:17:04;;;;;;;1.43;1.00;;;;;;;-0.53;82.62;101645.38;5020515;28;20210;-72
2021/01/17 08:19:39;;;;;;;5.80;1.00;;;;;;;-0.54;82.54;101646.28;5014020;28;20399;-72
2021/01/17 08:22:44;;;;;;;1999.90;857.37;;;;;;;-0.50;82.69;101649.75;5026489;28;20640;-72
2021/01/17 08:25:14;;;;;;;411.80;125.03;;;;;;;-0.54;82.21;101645.41;5022883;28;20204;-72
2021/01/17 08:27:43;;;;;;;4.23;2.50;;;;;;;-0.57;82.41;101651.56;5031093;28;20203;-72
2021/01/17 08:30:19;;;;;;;3.27;1.90;;;;;;;-0.63;82.01;101647.19;5018788;28;20306;-73
2021/01/17 08:32:49;;;;;;;4.33;2.30;;;;;;;-0.71;82.17;101648.16;5014853;28;20306;-73
2021/01/17 08:35:33;;;;;;;3.97;1.70;;;;;;;-0.62;82.31;101655.97;5020472;28;20242;-73
2021/01/17 08:38:14;;;;;;;2.07;1.40;;;;;;;-0.56;82.56;101652.44;5014940;28;20318;-72
2021/01/17 08:40:44;;;;;;;12.83;2.33;;;;;;;-0.52;82.42;101660.31;5018045;28;20220;-73
2021/01/17 08:43:15;;;;;;;4.10;1.90;;;;;;;-0.42;82.80;101659.34;5016197;28;20291;-71
2021/01/17 08:45:44;;;;;;;5.03;3.30;;;;;;;-0.28;83.03;101666.31;5017099;28;20254;-72
2021/01/17 08:48:23;;;;;;;3.00;2.27;;;;;;;-0.31;82.19;101669.81;5015829;28;20204;-71
2021/01/17 08:50:52;;;;;;;2.77;1.40;;;;;;;-0.35;82.07;101665.44;5015761;28;20205;-71
2021/01/17 08:53:30;;;;;;;1.50;1.37;;;;;;;-0.28;81.87;101675.09;5016845;28;20203;-72
2021/01/17 08:56:03;;;;;;;3.13;1.90;;;;;;;-0.43;81.14;101675.19;5019975;28;20217;-72
2021/01/17 08:59:01;;;;;;;2.23;1.27;;;;;;;-0.43;81.74;101667.28;5016471;28;20614;-72
2021/01/17 09:01:28;;;;;;;6.03;1.93;;;;;;;-0.68;81.17;101656.91;4973885;28;20230;-73
2021/01/17 09:04:00;;;;;;;5.57;2.00;;;;;;;-0.48;81.47;101680.50;4999487;28;20219;-73
2021/01/17 09:06:34;;;;;;;3.27;1.43;;;;;;;-0.52;81.45;101681.44;5015507;28;20628;-72
2021/01/17 09:09:07;;;;;;;2.20;1.83;;;;;;;-0.61;81.19;101684.13;5013271;28;20544;-73
2021/01/17 09:11:39;;;;;;;4.17;2.00;;;;;;;-0.48;82.16;101695.47;5012918;28;20673;-73
2021/01/17 09:14:26;;;;;;;2.97;2.03;;;;;;;-0.36;81.92;101696.25;5008436;28;20215;-73
2021/01/17 09:16:56;;;;;;;2.40;1.43;;;;;;;-0.32;82.38;101692.69;5045170;28;20203;-73
2021/01/17 09:19:30;;;;;;;2.23;1.20;;;;;;;-0.21;82.21;101699.66;5013236;28;20210;-72
2021/01/17 09:21:58;;;;;;;3.43;1.57;;;;;;;-0.16;82.59;101711.06;5013042;28;20214;-73
2021/01/17 09:24:27;;;;;;;2.53;1.47;;;;;;;-0.15;82.26;101697.84;5014886;28;20199;-72
2021/01/17 09:27:01;;;;;;;2.53;2.07;;;;;;;-0.12;82.05;101713.66;5031941;28;20202;-73
2021/01/17 09:29:31;;;;;;;2.00;1.50;;;;;;;-0.15;81.41;101707.53;5011094;28;20752;-72
2021/01/17 09:32:01;;;;;;;2.53;1.53;;;;;;;-0.15;81.54;101702.25;5020513;28;20209;-73
2021/01/17 09:34:34;;;;;;;3.70;1.93;;;;;;;-0.14;81.79;101704.88;5013264;28;20238;-73
2021/01/17 09:37:06;;;;;;;2.37;1.70;;;;;;;-0.13;81.61;101697.81;5016335;28;20295;-72
2021/01/17 09:39:37;;;;;;;3.90;1.83;;;;;;;-0.20;82.04;101677.66;5011818;28;20211;-72
2021/01/17 09:42:07;;;;;;;2.63;1.80;;;;;;;-0.08;82.03;101688.09;5012658;28;20272;-72
2021/01/17 09:44:36;;;;;;;2.87;1.70;;;;;;;-0.16;81.83;101677.63;5019086;28;20305;-73
2021/01/17 09:47:04;;;;;;;3.90;1.90;;;;;;;-0.05;81.89;101688.94;5023579;28;20199;-72
2021/01/17 09:49:32;;;;;;;4.80;1.80;;;;;;;-0.01;81.68;101708.25;5016016;28;20207;-71
2021/01/17 09:52:00;;;;;;;3.87;2.57;;;;;;;-0.07;81.81;101706.56;5013855;28;20564;-71
2021/01/17 09:54:27;;;;;;;6.17;2.30;;;;;;;-0.39;81.41;101645.25;5011370;28;20216;-71
2021/01/17 09:56:55;;;;;;;4.50;2.20;;;;;;;-0.07;81.37;101700.41;5010358;28;20200;-71
2021/01/17 09:59:23;;;;;;;7.50;2.60;;;;;;;0.01;81.46;101703.00;5014944;28;20216;-70
2021/01/17 10:01:52;;;;;;;7.33;2.70;;;;;;;-0.07;80.93;101693.38;5014058;28;20233;-70
2021/01/17 10:04:29;;;;;;;338.80;131.57;;;;;;;-0.06;81.01;101692.47;5025558;28;20299;-70
2021/01/17 10:06:58;;;;;;;75.07;29.20;;;;;;;-0.50;80.94;101618.97;5005947;28;20242;-71
2021/01/17 10:09:27;;;;;;;6.07;2.50;;;;;;;-0.03;80.79;101699.50;5018078;28;20572;-72
2021/01/17 10:11:56;;;;;;;8.40;2.90;;;;;;;0.07;81.89;101702.94;5010442;28;20255;-70
2021/01/17 10:14:25;;;;;;;9.43;2.30;;;;;;;0.14;82.00;101704.63;5017878;28;20212;-71
2021/01/17 10:16:53;;;;;;;4.30;2.47;;;;;;;0.12;81.70;101701.13;5011218;28;20277;-72
2021/01/17 10:19:25;;;;;;;7.50;2.60;;;;;;;0.11;81.70;101686.19;5010279;28;20235;-72
2021/01/17 10:21:52;;;;;;;3.83;2.10;;;;;;;0.23;81.49;101702.75;5015034;28;20226;-72
2021/01/17 10:24:22;;;;;;;6.63;1.80;;;;;;;0.24;81.83;101707.16;5013347;28;20214;-72
2021/01/17 10:26:52;;;;;;;2.60;2.10;;;;;;;0.25;81.69;101708.91;5004677;28;20200;-70
2021/01/17 10:29:24;;;;;;;4.80;2.10;;;;;;;0.24;81.70;101699.22;5007622;28;20598;-71
2021/01/17 10:31:57;;;;;;;6.67;2.00;;;;;;;0.26;81.54;101699.22;5011660;28;20198;-72
2021/01/17 10:34:26;;;;;;;5.03;2.40;;;;;;;0.32;81.82;101698.31;5010310;28;20662;-72
2021/01/17 10:36:58;;;;;;;2.23;1.63;;;;;;;0.11;81.08;101700.25;5009664;28;20215;-73
2021/01/17 10:39:28;;;;;;;2.30;1.80;;;;;;;0.13;81.46;101698.47;5010280;28;20269;-73
2021/01/17 10:42:05;;;;;;;4.87;1.90;;;;;;;0.26;81.57;101691.28;5004584;28;20223;-74
2021/01/17 10:44:37;;;;;;;3.80;2.00;;;;;;;0.11;80.77;101689.69;5006740;28;20207;-73
2021/01/17 10:47:12;;;;;;;3.53;2.00;;;;;;;0.10;80.87;101685.31;5012588;28;20778;-72
2021/01/17 10:49:46;;;;;;;3.07;2.10;;;;;;;0.20;81.33;101683.44;5004801;28;20611;-72
2021/01/17 10:52:21;;;;;;;5.73;2.23;;;;;;;0.19;81.17;101687.84;5011707;28;20223;-72
2021/01/17 10:54:52;;;;;;;4.07;2.20;;;;;;;0.25;81.39;101690.41;5011805;28;20546;-72
2021/01/17 10:57:21;;;;;;;3.33;2.10;;;;;;;0.31;81.47;101692.16;5016665;28;20288;-72
2021/01/17 10:59:52;;;;;;;5.70;2.40;;;;;;;0.31;81.44;101673.66;5015949;28;20212;-72
2021/01/17 11:02:24;;;;;;;5.40;2.23;;;;;;;0.34;80.60;101683.31;5011262;28;20215;-72
2021/01/17 11:04:52;;;;;;;6.03;2.47;;;;;;;0.31;80.74;101678.94;5010804;28;20300;-72
2021/01/17 11:07:25;;;;;;;3.60;2.03;;;;;;;0.35;80.94;101677.13;5012271;28;20200;-72
2021/01/17 11:09:54;;;;;;;2.73;1.80;;;;;;;0.39;81.09;101669.16;5015974;28;20208;-72
2021/01/17 11:12:35;;;;;;;5.47;1.90;;;;;;;0.32;81.15;101656.03;5019500;28;20206;-72
2021/01/17 11:15:16;;;;;;;3.73;1.97;;;;;;;0.51;81.68;101684.88;5024314;28;20858;-72
2021/01/17 11:17:59;;;;;;;4.20;2.33;;;;;;;0.56;81.74;101684.81;5016411;28;20200;-72
2021/01/17 11:20:28;;;;;;;12.93;2.10;;;;;;;0.56;81.71;101687.44;5022338;28;20224;-72
2021/01/17 11:23:00;;;;;;;3.83;1.83;;;;;;;0.23;81.34;101625.31;5017453;28;20206;-72
2021/01/17 11:25:28;;;;;;;3.13;1.60;;;;;;;0.56;81.30;101682.16;5019340;28;20203;-72
2021/01/17 11:28:00;;;;;;;5.93;2.10;;;;;;;0.38;81.44;101638.34;5023811;28;20206;-72
2021/01/17 11:30:29;;;;;;;7.87;1.93;;;;;;;0.65;81.54;101683.84;5021045;28;20215;-70
2021/01/17 11:33:07;;;;;;;5.70;2.43;;;;;;;0.67;81.51;101675.00;5026124;28;20199;-72
2021/01/17 11:35:35;;;;;;;190.67;57.33;;;;;;;0.57;81.20;101652.19;5021482;28;20348;-72
2021/01/17 11:38:03;;;;;;;12.47;5.17;;;;;;;0.64;81.17;101668.88;5024994;28;20902;-73
2021/01/17 11:40:32;;;;;;;6.43;3.13;;;;;;;0.68;81.51;101668.81;5025573;28;20220;-72
2021/01/17 11:43:11;;;;;;;5.43;2.60;;;;;;;0.65;81.66;101671.50;5026749;28;20341;-72
2021/01/17 11:45:41;;;;;;;5.73;2.90;;;;;;;0.45;81.27;101628.59;5026052;28;20221;-72